Laukaa, Finland
Kieli:  Suomi
5°C CurCond
Päivitetty24/09/2018 20:50 
 

Lähistön Lentoasemien Säätiloja:

 

EFJY - Jyvaskyla (mil/C,) Finland
Etäisyys Sääasemalta: PKo 21km
Päivitetty: 24/09/2018 20:50
Selkeätä
Selkeätä
 Tuulen suunta LLu
Tuuli: LLu 11 km/h
Lämpötila: 2°C
Tuulen purevuus: -1°C
Kastepiste: 0°C
Ilmankosteus: 87%
Ilmanpaine: 1005 hPa
Yhteenveto: Selkeätä
Näkyvyys: Enemmän Kuin 10 km
2018/09/24 17:50 EFJY 241750Z AUTO 30006KT CAVOK 02/00 Q1005
EFHA - Halli (fin-Afb), Finland
Etäisyys Sääasemalta: Lo 56km
Päivitetty: 24/09/2018 20:50
Selkeätä
Selkeätä
 Tuulen suunta LLu
Tuuli: LLu 11 km/h
Lämpötila: 4°C
Tuulen purevuus: 1°C
Kastepiste: 0°C
Ilmankosteus: 75%
Ilmanpaine: 1006 hPa
Yhteenveto: Selkeätä
Näkyvyys: Enemmän Kuin 10 km
2018/09/24 17:50 EFHA 241750Z AUTO 29006KT CAVOK 04/00 Q1006
EFMI - Mikkeli, Finland
Etäisyys Sääasemalta: IKa 105km
Päivitetty: 24/09/2018 20:50
Selkeätä
Selkeätä
 Tuulen suunta Lu
Tuuli: Lu 2 km/h
Lämpötila: 3°C
Kastepiste: 2°C
Ilmankosteus: 93%
Ilmanpaine: 1005 hPa
Yhteenveto: Selkeätä
Näkyvyys: Enemmän Kuin 10 km
2018/09/24 17:50 EFMI 241750Z AUTO 31001KT CAVOK 03/02 Q1005
 
EFTP - Tampere/Pirkkala, Finland
Etäisyys Sääasemalta: Lo 135km
Päivitetty: 24/09/2018 20:50
Selkeätä
Selkeätä
 Tuulen suunta LLu
Tuuli: LLu 9 km/h
Lämpötila: 6°C
Tuulen purevuus: 4°C
Kastepiste: 1°C
Ilmankosteus: 71%
Ilmanpaine: 1008 hPa
Yhteenveto: Selkeätä
Näkyvyys: Enemmän Kuin 10 km
2018/09/24 17:50 EFTP 241750Z AUTO 30005KT CAVOK 06/01 Q1008
EFKU - Kuopio (mil/Civ), Finland
Etäisyys Sääasemalta: Ko 146km
Päivitetty: 24/09/2018 20:50
Selkeätä
Selkeätä
 Tuulen suunta L
Tuuli: L 13 km/h
Lämpötila: 6°C
Tuulen purevuus: 3°C
Kastepiste: 2°C
Ilmankosteus: 76%
Ilmanpaine: 1003 hPa
Yhteenveto: Selkeätä
Näkyvyys: Enemmän Kuin 10 km
2018/09/24 17:50 EFKU 241750Z AUTO 27007KT CAVOK 06/02 Q1003
EFSI - Seinajoki-Ilmajo, Finland
Etäisyys Sääasemalta: LLu 149km
Päivitetty: 24/09/2018 20:50
Selkeätä
Selkeätä
 Tuulen suunta L
Tuuli: L 9 km/h
Lämpötila: 5°C
Tuulen purevuus: 3°C
Kastepiste: 0°C
Ilmankosteus: 70%
Ilmanpaine: 1008 hPa
Yhteenveto: Selkeätä
Näkyvyys: Enemmän Kuin 10 km
2018/09/24 17:50 EFSI 241750Z AUTO 28005KT CAVOK 05/M00 Q1008